createdAt,value
2019-05-07T00:02:27.425Z,1.10
2019-05-07T00:04:56.019Z,1.07
2019-05-07T00:07:24.635Z,1.00
2019-05-07T00:09:53.293Z,1.20
2019-05-07T00:12:23.099Z,1.20
2019-05-07T00:15:01.259Z,1.10
2019-05-07T00:17:22.843Z,1.25
2019-05-07T00:19:52.617Z,1.17
2019-05-07T00:22:22.728Z,1.20
2019-05-07T00:24:52.190Z,1.05
2019-05-07T00:27:22.579Z,1.02
2019-05-07T00:29:52.108Z,1.45
2019-05-07T00:32:22.190Z,1.30
2019-05-07T00:34:55.567Z,1.07
2019-05-07T00:37:32.302Z,1.20
2019-05-07T00:40:15.383Z,0.90
2019-05-07T00:43:02.721Z,0.98
2019-05-07T00:45:46.123Z,0.95
2019-05-07T00:48:14.733Z,1.20
2019-05-07T00:50:44.922Z,1.20
2019-05-07T00:53:13.562Z,1.00
2019-05-07T00:55:42.469Z,0.98
2019-05-07T00:58:13.087Z,1.00
2019-05-07T01:00:42.065Z,1.00
2019-05-07T01:03:12.901Z,1.10
2019-05-07T01:05:43.167Z,0.90
2019-05-07T01:08:13.185Z,1.00
2019-05-07T01:10:42.082Z,1.00
2019-05-07T01:13:12.649Z,1.02
2019-05-07T01:15:42.955Z,0.85
2019-05-07T01:18:12.366Z,1.00
2019-05-07T01:20:42.351Z,0.90
2019-05-07T01:23:13.244Z,0.93
2019-05-07T01:25:43.026Z,1.10
2019-05-07T01:28:13.166Z,1.10
2019-05-07T01:30:43.250Z,1.07
2019-05-07T01:33:27.687Z,0.88
2019-05-07T01:36:13.325Z,1.15
2019-05-07T01:38:42.709Z,1.00
2019-05-07T01:41:12.506Z,1.00
2019-05-07T01:43:42.913Z,1.37
2019-05-07T01:46:12.313Z,1.35
2019-05-07T01:48:42.973Z,1.10
2019-05-07T01:51:12.819Z,1.00
2019-05-07T01:53:43.036Z,0.93
2019-05-07T01:56:12.394Z,1.22
2019-05-07T01:58:42.537Z,1.20
2019-05-07T02:01:13.101Z,1.10
2019-05-07T02:03:53.798Z,1.20
2019-05-07T02:06:30.315Z,1.42
2019-05-07T02:09:10.257Z,1.10
2019-05-07T02:11:42.249Z,1.35
2019-05-07T02:14:13.676Z,1.17
2019-05-07T02:16:43.116Z,1.22
2019-05-07T02:19:12.689Z,1.32
2019-05-07T02:21:42.310Z,1.32
2019-05-07T02:24:12.664Z,1.20
2019-05-07T02:26:42.710Z,1.45
2019-05-07T02:29:12.199Z,1.20
2019-05-07T02:31:43.828Z,1.10
2019-05-07T02:34:14.047Z,1.12
2019-05-07T02:36:43.252Z,1.20
2019-05-07T02:39:27.561Z,1.30
2019-05-07T02:41:56.108Z,1.50
2019-05-07T02:44:25.580Z,1.40
2019-05-07T02:47:04.079Z,1.47
2019-05-07T02:49:53.603Z,1.07
2019-05-07T02:52:43.435Z,1.50
2019-05-07T02:55:16.195Z,1.10
2019-05-07T02:57:44.769Z,1.02
2019-05-07T03:00:14.741Z,1.32
2019-05-07T03:02:43.958Z,1.20
2019-05-07T03:05:13.723Z,1.20
2019-05-07T03:07:42.922Z,1.10
2019-05-07T03:10:13.839Z,1.20
2019-05-07T03:12:43.034Z,1.40
2019-05-07T03:15:13.241Z,1.15
2019-05-07T03:17:43.121Z,1.35
2019-05-07T03:20:15.666Z,1.20
2019-05-07T03:22:44.167Z,1.10
2019-05-07T03:25:22.489Z,1.30
2019-05-07T03:27:50.035Z,1.15
2019-05-07T03:30:49.684Z,1.10
2019-05-07T03:33:26.934Z,1.30
2019-05-07T03:35:57.227Z,1.07
2019-05-07T03:38:25.916Z,0.93
2019-05-07T03:40:54.432Z,1.17
2019-05-07T03:43:24.653Z,1.42
2019-05-07T03:46:14.133Z,1.30
2019-05-07T03:48:44.028Z,0.93
2019-05-07T03:51:13.259Z,1.00
2019-05-07T03:53:43.723Z,1.30
2019-05-07T03:56:13.192Z,1.02
2019-05-07T03:58:43.320Z,1.12
2019-05-07T04:01:13.225Z,1.67
2019-05-07T04:03:44.714Z,1.02
2019-05-07T04:06:12.974Z,1.02
2019-05-07T04:08:43.288Z,0.95
2019-05-07T04:11:13.802Z,1.37
2019-05-07T04:13:44.163Z,1.17
2019-05-07T04:16:13.583Z,1.20
2019-05-07T04:18:43.702Z,1.00
2019-05-07T04:21:14.040Z,1.10
2019-05-07T04:23:43.797Z,1.20
2019-05-07T04:26:37.953Z,1.00
2019-05-07T04:29:08.442Z,1.25
2019-05-07T04:31:42.969Z,1.20
2019-05-07T04:34:15.630Z,1.00
2019-05-07T04:36:46.527Z,1.80
2019-05-07T04:39:15.140Z,1.47
2019-05-07T04:41:43.813Z,1.12
2019-05-07T04:44:14.039Z,1.40
2019-05-07T04:46:47.943Z,1.40
2019-05-07T04:49:14.194Z,1.50
2019-05-07T04:51:52.916Z,1.57
2019-05-07T04:54:23.678Z,1.30
2019-05-07T04:56:53.196Z,1.70
2019-05-07T04:59:23.762Z,1.62
2019-05-07T05:01:58.689Z,1.32
2019-05-07T05:04:31.468Z,1.47
2019-05-07T05:06:57.530Z,1.22
2019-05-07T05:09:26.106Z,1.40
2019-05-07T05:11:54.760Z,1.37
2019-05-07T05:14:23.346Z,1.30
2019-05-07T05:16:52.499Z,1.30
2019-05-07T05:19:23.027Z,1.40
2019-05-07T05:21:58.401Z,1.47
2019-05-07T05:24:36.309Z,1.70
2019-05-07T05:27:04.922Z,1.50
2019-05-07T05:29:34.824Z,1.50
2019-05-07T05:32:03.446Z,1.22
2019-05-07T05:34:32.910Z,1.62
2019-05-07T05:37:02.438Z,1.50
2019-05-07T05:39:32.007Z,1.75
2019-05-07T05:42:08.485Z,1.37
2019-05-07T05:44:37.071Z,1.30
2019-05-07T05:47:05.689Z,1.20
2019-05-07T05:49:34.226Z,1.72
2019-05-07T05:52:37.235Z,1.50
2019-05-07T05:55:12.037Z,1.47
2019-05-07T05:57:49.040Z,1.20
2019-05-07T06:00:42.883Z,1.52
2019-05-07T06:03:33.594Z,1.50
2019-05-07T06:06:09.995Z,1.42
2019-05-07T06:09:01.903Z,1.60
2019-05-07T06:11:42.907Z,1.22
2019-05-07T06:14:22.078Z,1.40
2019-05-07T06:17:05.432Z,1.62
2019-05-07T06:19:38.967Z,1.15
2019-05-07T06:22:18.037Z,1.07
2019-05-07T06:24:56.726Z,1.32
2019-05-07T06:27:25.324Z,1.37
2019-05-07T06:29:53.933Z,1.45
2019-05-07T06:32:23.032Z,1.07
2019-05-07T06:34:52.310Z,1.20
2019-05-07T06:37:22.802Z,1.40
2019-05-07T06:40:15.347Z,1.37
2019-05-07T06:43:06.083Z,1.30
2019-05-07T06:45:39.594Z,1.25
2019-05-07T06:48:08.160Z,1.37
2019-05-07T06:50:37.793Z,1.15
2019-05-07T06:53:06.454Z,1.40
2019-05-07T06:55:35.044Z,1.30
2019-05-07T06:58:04.364Z,1.20
2019-05-07T07:01:02.220Z,1.50
2019-05-07T07:03:38.850Z,1.20
2019-05-07T07:06:14.240Z,1.50
2019-05-07T07:09:12.647Z,1.22
2019-05-07T07:11:46.531Z,1.25
2019-05-07T07:14:15.251Z,1.40
2019-05-07T07:16:43.852Z,1.10
2019-05-07T07:19:12.528Z,1.25
2019-05-07T07:21:42.291Z,1.60
2019-05-07T07:24:12.730Z,1.12
2019-05-07T07:26:42.202Z,0.90
2019-05-07T07:29:12.696Z,1.37
2019-05-07T07:31:48.916Z,1.07
2019-05-07T07:34:17.632Z,1.25
2019-05-07T07:37:07.885Z,1.07
2019-05-07T07:39:32.282Z,1.22
2019-05-07T07:42:03.077Z,1.00
2019-05-07T07:44:32.958Z,1.05
2019-05-07T07:47:02.529Z,1.07
2019-05-07T07:49:33.001Z,1.00
2019-05-07T07:52:03.192Z,1.00
2019-05-07T07:54:32.196Z,1.00
2019-05-07T07:57:09.432Z,1.30
2019-05-07T07:59:57.164Z,1.30
2019-05-07T08:02:35.778Z,1.00
2019-05-07T08:05:06.202Z,0.90
2019-05-07T08:07:34.841Z,0.75
2019-05-07T08:10:03.959Z,1.40
2019-05-07T08:12:32.681Z,1.00
2019-05-07T08:15:14.717Z,1.00
2019-05-07T08:17:32.678Z,1.05
2019-05-07T08:20:02.513Z,1.20
2019-05-07T08:22:32.983Z,0.95
2019-05-07T08:25:03.356Z,1.00
2019-05-07T08:27:32.556Z,0.82
2019-05-07T08:30:02.954Z,1.10
2019-05-07T08:33:02.010Z,0.95
2019-05-07T08:36:02.706Z,1.17
2019-05-07T08:38:48.603Z,1.40
2019-05-07T08:41:17.448Z,0.85
2019-05-07T08:43:46.128Z,1.10
2019-05-07T08:46:25.102Z,1.10
2019-05-07T08:48:53.725Z,1.07
2019-05-07T08:51:22.443Z,0.85
2019-05-07T08:54:05.077Z,0.85
2019-05-07T08:56:34.734Z,1.00
2019-05-07T08:59:03.475Z,0.90
2019-05-07T09:01:32.556Z,1.15
2019-05-07T09:04:02.484Z,1.07
2019-05-07T09:06:34.238Z,1.20
2019-05-07T09:09:06.385Z,1.20
2019-05-07T09:11:35.309Z,0.90
2019-05-07T09:14:04.108Z,1.00
2019-05-07T09:16:32.800Z,1.02
2019-05-07T09:19:02.151Z,1.02
2019-05-07T09:21:32.156Z,0.90
2019-05-07T09:24:02.573Z,0.98
2019-05-07T09:26:38.055Z,0.90
2019-05-07T09:29:32.351Z,0.90
2019-05-07T09:32:28.973Z,0.90
2019-05-07T09:34:58.148Z,1.00
2019-05-07T09:37:27.507Z,1.20
2019-05-07T09:39:56.123Z,1.30
2019-05-07T09:42:24.861Z,1.02
2019-05-07T09:44:53.469Z,1.05
2019-05-07T09:47:22.125Z,1.07
2019-05-07T09:50:02.080Z,1.17
2019-05-07T09:52:22.844Z,0.93
2019-05-07T09:54:52.273Z,1.00
2019-05-07T09:57:28.329Z,1.10
2019-05-07T09:59:53.034Z,1.10
2019-05-07T10:02:22.669Z,0.80
2019-05-07T10:04:52.659Z,1.35
2019-05-07T10:07:22.270Z,1.05
2019-05-07T10:09:52.264Z,1.22
2019-05-07T10:12:44.362Z,1.07
2019-05-07T10:15:13.396Z,1.00
2019-05-07T10:17:46.752Z,0.90
2019-05-07T10:20:21.808Z,0.90
2019-05-07T10:22:45.921Z,0.80
2019-05-07T10:25:14.764Z,0.95
2019-05-07T10:27:44.342Z,0.95
2019-05-07T10:30:13.061Z,1.00
2019-05-07T10:32:42.295Z,1.10
2019-05-07T10:35:12.780Z,1.12
2019-05-07T10:37:42.262Z,0.90
2019-05-07T10:40:12.245Z,1.02
2019-05-07T10:42:42.940Z,0.80
2019-05-07T10:45:22.902Z,1.15
2019-05-07T10:48:03.533Z,0.90
2019-05-07T10:50:38.640Z,0.82
2019-05-07T10:53:02.497Z,0.95
2019-05-07T10:55:32.823Z,0.70
2019-05-07T10:58:03.042Z,1.10
2019-05-07T11:00:33.128Z,1.32
2019-05-07T11:03:02.509Z,1.17
2019-05-07T11:05:32.592Z,1.10
2019-05-07T11:08:02.256Z,0.82
2019-05-07T11:10:32.632Z,0.93
2019-05-07T11:13:02.341Z,0.90
2019-05-07T11:15:32.691Z,0.80
2019-05-07T11:18:14.909Z,1.17
2019-05-07T11:20:49.718Z,0.90
2019-05-07T11:23:14.890Z,0.90
2019-05-07T11:25:43.488Z,1.00
2019-05-07T11:28:12.449Z,1.30
2019-05-07T11:30:42.688Z,0.95
2019-05-07T11:33:12.941Z,0.93
2019-05-07T11:35:42.293Z,1.10
2019-05-07T11:38:18.676Z,0.90
2019-05-07T11:40:42.755Z,1.00
2019-05-07T11:43:27.684Z,0.70
2019-05-07T11:46:02.181Z,0.85
2019-05-07T11:48:33.565Z,1.00
2019-05-07T11:51:23.500Z,1.07
2019-05-07T11:54:07.592Z,0.80
2019-05-07T11:56:36.207Z,1.07
2019-05-07T11:59:04.854Z,1.05
2019-05-07T12:01:43.848Z,0.90
2019-05-07T12:04:04.080Z,0.90
2019-05-07T12:06:32.627Z,0.80
2019-05-07T12:09:03.020Z,1.02
2019-05-07T12:11:33.031Z,0.80
2019-05-07T12:14:02.004Z,1.00
2019-05-07T12:16:32.137Z,1.20
2019-05-07T12:19:02.213Z,1.00
2019-05-07T12:21:31.184Z,1.15
2019-05-07T12:24:01.964Z,1.00
2019-05-07T12:26:30.568Z,1.07
2019-05-07T12:28:59.105Z,0.75
2019-05-07T12:31:49.551Z,0.80
2019-05-07T12:34:25.140Z,0.93
2019-05-07T12:36:53.862Z,0.78
2019-05-07T12:39:22.551Z,0.80
2019-05-07T12:41:52.418Z,0.93
2019-05-07T12:44:22.219Z,0.55
2019-05-07T12:46:52.442Z,0.50
2019-05-07T12:49:22.142Z,0.68
2019-05-07T12:52:09.968Z,0.60
2019-05-07T12:54:55.181Z,0.50
2019-05-07T12:57:24.913Z,0.50
2019-05-07T12:59:53.478Z,0.68
2019-05-07T13:02:38.098Z,0.80
2019-05-07T13:05:02.950Z,0.80
2019-05-07T13:07:52.434Z,0.70
2019-05-07T13:10:21.894Z,0.60
2019-05-07T13:12:52.645Z,0.75
2019-05-07T13:15:26.986Z,0.50
2019-05-07T13:17:52.057Z,0.70
2019-05-07T13:20:22.528Z,0.60
2019-05-07T13:22:51.204Z,0.70
2019-05-07T13:25:21.860Z,0.60
2019-05-07T13:27:52.105Z,0.60
2019-05-07T13:30:22.186Z,0.60
2019-05-07T13:32:52.587Z,0.60
2019-05-07T13:35:21.227Z,0.60
2019-05-07T13:38:09.009Z,0.72
2019-05-07T13:41:12.852Z,0.50
2019-05-07T13:44:02.863Z,0.70
2019-05-07T13:46:32.580Z,0.70
2019-05-07T13:49:02.074Z,0.80
2019-05-07T13:51:33.600Z,0.80
2019-05-07T13:54:02.070Z,0.70
2019-05-07T13:56:32.615Z,0.60
2019-05-07T13:59:02.333Z,0.57
2019-05-07T14:01:43.753Z,0.82
2019-05-07T14:04:13.005Z,0.90
2019-05-07T14:06:43.200Z,0.85
2019-05-07T14:09:16.759Z,1.10
2019-05-07T14:11:45.502Z,2.42
2019-05-07T14:14:16.188Z,0.70
2019-05-07T14:16:45.202Z,0.80
2019-05-07T14:19:13.871Z,0.78
2019-05-07T14:21:42.668Z,0.75
2019-05-07T14:24:14.807Z,0.72
2019-05-07T14:26:42.564Z,0.75
2019-05-07T14:29:11.204Z,0.80
2019-05-07T14:31:39.881Z,0.70
2019-05-07T14:34:36.565Z,0.70
2019-05-07T14:37:17.845Z,0.80
2019-05-07T14:39:46.385Z,0.60
2019-05-07T14:42:22.092Z,0.78
2019-05-07T14:44:52.774Z,0.90
2019-05-07T14:47:22.236Z,1.02
2019-05-07T14:49:52.953Z,0.90
2019-05-07T14:52:30.331Z,1.00
2019-05-07T14:54:51.812Z,0.88
2019-05-07T14:57:22.128Z,1.05
2019-05-07T14:59:52.457Z,0.95
2019-05-07T15:02:23.470Z,0.85
2019-05-07T15:04:52.539Z,1.00
2019-05-07T15:07:22.648Z,1.00
2019-05-07T15:09:51.970Z,0.98
2019-05-07T15:12:23.080Z,0.70
2019-05-07T15:14:52.804Z,1.07
2019-05-07T15:17:38.315Z,1.10
2019-05-07T15:20:07.484Z,0.90
2019-05-07T15:22:49.460Z,1.10
2019-05-07T15:25:14.796Z,0.90
2019-05-07T15:27:44.145Z,1.05
2019-05-07T15:30:13.282Z,0.98
2019-05-07T15:32:42.768Z,0.80
2019-05-07T15:35:12.611Z,0.78
2019-05-07T15:37:42.717Z,0.90
2019-05-07T15:40:11.834Z,0.90
2019-05-07T15:42:42.156Z,1.00
2019-05-07T15:45:12.552Z,0.90
2019-05-07T15:47:44.401Z,0.70
2019-05-07T15:50:13.336Z,0.78
2019-05-07T15:53:06.806Z,0.80
2019-05-07T15:55:35.606Z,0.93
2019-05-07T15:58:04.321Z,0.90
2019-05-07T16:00:33.993Z,0.90
2019-05-07T16:03:11.856Z,1.10
2019-05-07T16:05:42.535Z,1.00
2019-05-07T16:08:12.642Z,0.82
2019-05-07T16:10:42.594Z,1.02
2019-05-07T16:13:13.751Z,0.80
2019-05-07T16:15:42.658Z,1.60
2019-05-07T16:18:15.025Z,1.40
2019-05-07T16:20:43.783Z,1.10
2019-05-07T16:23:17.250Z,1.10
2019-05-07T16:25:42.837Z,1.02
2019-05-07T16:28:12.789Z,0.70
2019-05-07T16:30:42.713Z,0.80
2019-05-07T16:33:12.810Z,0.90
2019-05-07T16:35:42.528Z,1.02
2019-05-07T16:38:14.477Z,0.85
2019-05-07T16:40:42.850Z,0.95
2019-05-07T16:43:12.798Z,0.93
2019-05-07T16:45:42.406Z,1.10
2019-05-07T16:48:13.006Z,1.17
2019-05-07T16:50:41.688Z,1.20
2019-05-07T16:53:12.183Z,1.10
2019-05-07T16:55:42.853Z,1.37
2019-05-07T16:58:20.329Z,1.10
2019-05-07T17:00:49.504Z,1.35
2019-05-07T17:03:22.363Z,1.02
2019-05-07T17:05:52.402Z,1.10
2019-05-07T17:08:42.336Z,1.05
2019-05-07T17:11:12.110Z,1.00
2019-05-07T17:13:42.400Z,0.98
2019-05-07T17:16:12.351Z,1.20
2019-05-07T17:18:41.102Z,1.10
2019-05-07T17:21:09.725Z,0.80
2019-05-07T17:23:44.046Z,1.05
2019-05-07T17:26:08.685Z,1.37
2019-05-07T17:28:37.384Z,0.95
2019-05-07T17:31:06.073Z,1.12
2019-05-07T17:33:34.680Z,1.00
2019-05-07T17:36:03.310Z,1.07
2019-05-07T17:38:32.329Z,0.90
2019-05-07T17:41:10.861Z,0.93
2019-05-07T17:43:32.517Z,1.15
2019-05-07T17:46:02.850Z,1.12
2019-05-07T17:48:32.625Z,1.22
2019-05-07T17:51:23.498Z,0.82
2019-05-07T17:53:59.642Z,1.02
2019-05-07T17:56:22.895Z,1.22
2019-05-07T17:58:52.250Z,1.15
2019-05-07T18:01:38.723Z,1.10
2019-05-07T18:04:07.474Z,0.80
2019-05-07T18:06:36.318Z,0.82
2019-05-07T18:09:05.592Z,0.70
2019-05-07T18:11:35.827Z,0.90
2019-05-07T18:14:06.718Z,1.00
2019-05-07T18:16:57.266Z,0.82
2019-05-07T18:19:26.566Z,0.80
2019-05-07T18:21:55.245Z,0.60
2019-05-07T18:24:23.995Z,0.60
2019-05-07T18:26:52.739Z,0.90
2019-05-07T18:29:22.473Z,1.00
2019-05-07T18:31:54.676Z,0.70
2019-05-07T18:34:25.630Z,0.93
2019-05-07T18:36:54.245Z,1.12
2019-05-07T18:39:25.972Z,0.93
2019-05-07T18:41:56.693Z,0.70
2019-05-07T18:44:25.373Z,0.80
2019-05-07T18:46:54.172Z,0.62
2019-05-07T18:49:22.803Z,0.70
2019-05-07T18:51:52.149Z,0.82
2019-05-07T18:54:30.363Z,0.78
2019-05-07T18:56:52.980Z,0.60
2019-05-07T18:59:23.882Z,0.90
2019-05-07T19:01:52.925Z,0.80
2019-05-07T19:04:23.980Z,0.75
2019-05-07T19:06:52.746Z,0.78
2019-05-07T19:09:22.633Z,0.60
2019-05-07T19:11:52.228Z,0.98
2019-05-07T19:14:22.656Z,0.75
2019-05-07T19:16:52.626Z,0.80
2019-05-07T19:19:22.137Z,0.90
2019-05-07T19:21:52.993Z,0.93
2019-05-07T19:24:24.242Z,0.80
2019-05-07T19:26:53.232Z,0.80
2019-05-07T19:29:23.321Z,0.75
2019-05-07T19:31:53.692Z,1.20
2019-05-07T19:34:22.437Z,1.15
2019-05-07T19:36:52.159Z,1.10
2019-05-07T19:39:23.209Z,0.90
2019-05-07T19:41:52.471Z,1.35
2019-05-07T19:44:21.497Z,2.47
2019-05-07T19:46:52.225Z,1.77
2019-05-07T19:49:20.722Z,1.57
2019-05-07T19:51:49.578Z,1.70
2019-05-07T19:54:18.830Z,1.95
2019-05-07T19:56:47.784Z,2.70
2019-05-07T19:59:16.629Z,3.70
2019-05-07T20:01:49.891Z,3.40
2019-05-07T20:04:18.946Z,3.08
2019-05-07T20:06:47.602Z,3.20
2019-05-07T20:09:17.887Z,3.30
2019-05-07T20:11:48.320Z,3.25
2019-05-07T20:14:16.998Z,3.58
2019-05-07T20:16:45.695Z,3.67
2019-05-07T20:19:17.891Z,3.90
2019-05-07T20:21:46.682Z,4.03
2019-05-07T20:24:16.423Z,2.95
2019-05-07T20:26:45.094Z,4.00
2019-05-07T20:29:13.979Z,3.87
2019-05-07T20:31:42.723Z,4.05
2019-05-07T20:34:13.039Z,4.12
2019-05-07T20:36:42.770Z,3.98
2019-05-07T20:39:12.778Z,5.05
2019-05-07T20:41:42.906Z,4.55
2019-05-07T20:44:12.095Z,2.80
2019-05-07T20:46:42.108Z,2.72
2019-05-07T20:49:13.057Z,1.90
2019-05-07T20:51:41.867Z,3.05
2019-05-07T20:54:29.792Z,2.62
2019-05-07T20:57:04.864Z,2.00
2019-05-07T20:59:33.506Z,2.02
2019-05-07T21:02:02.387Z,1.67
2019-05-07T21:04:33.020Z,1.75
2019-05-07T21:07:02.195Z,1.60
2019-05-07T21:09:32.789Z,1.80
2019-05-07T21:12:02.118Z,2.05
2019-05-07T21:14:32.498Z,1.70
2019-05-07T21:17:01.319Z,1.90
2019-05-07T21:19:29.992Z,1.50
2019-05-07T21:22:02.136Z,1.55
2019-05-07T21:24:33.030Z,1.35
2019-05-07T21:27:02.528Z,1.92
2019-05-07T21:29:32.673Z,1.62
2019-05-07T21:32:03.255Z,1.62
2019-05-07T21:34:31.883Z,1.70
2019-05-07T21:37:00.608Z,1.72
2019-05-07T21:39:32.715Z,1.60
2019-05-07T21:42:01.200Z,1.60
2019-05-07T21:44:32.354Z,1.50
2019-05-07T21:47:01.998Z,1.35
2019-05-07T21:49:33.071Z,1.60
2019-05-07T21:52:02.035Z,1.42
2019-05-07T21:54:55.832Z,1.70
2019-05-07T21:57:58.405Z,1.60
2019-05-07T22:00:45.236Z,1.60
2019-05-07T22:03:16.807Z,2.12
2019-05-07T22:05:45.433Z,1.60
2019-05-07T22:08:15.178Z,1.60
2019-05-07T22:10:43.784Z,2.12
2019-05-07T22:13:12.544Z,1.98
2019-05-07T22:15:42.265Z,2.10
2019-05-07T22:18:12.005Z,2.00
2019-05-07T22:20:42.614Z,1.98
2019-05-07T22:23:11.056Z,1.55
2019-05-07T22:25:42.163Z,1.95
2019-05-07T22:28:13.991Z,1.77
2019-05-07T22:31:02.216Z,1.40
2019-05-07T22:33:41.743Z,1.92
2019-05-07T22:36:12.535Z,1.77
2019-05-07T22:38:42.457Z,1.65
2019-05-07T22:41:12.943Z,1.50
2019-05-07T22:43:42.499Z,1.40
2019-05-07T22:46:12.431Z,1.70
2019-05-07T22:48:41.896Z,1.47
2019-05-07T22:51:12.226Z,1.50
2019-05-07T22:53:43.939Z,1.42
2019-05-07T22:56:14.178Z,1.50
2019-05-07T22:58:47.008Z,1.47
2019-05-07T23:01:15.654Z,1.40
2019-05-07T23:03:44.245Z,1.50
2019-05-07T23:06:12.792Z,1.52
2019-05-07T23:08:42.467Z,1.45
2019-05-07T23:11:12.480Z,1.32
2019-05-07T23:13:42.857Z,1.65
2019-05-07T23:16:13.654Z,1.45
2019-05-07T23:18:42.879Z,1.42
2019-05-07T23:21:11.930Z,1.55
2019-05-07T23:23:42.224Z,1.52
2019-05-07T23:26:12.213Z,1.42
2019-05-07T23:28:41.896Z,1.65
2019-05-07T23:31:12.100Z,1.50
2019-05-07T23:33:41.032Z,1.57
2019-05-07T23:36:12.789Z,1.57
2019-05-07T23:38:42.642Z,1.32
2019-05-07T23:41:36.269Z,1.10
2019-05-07T23:44:18.558Z,1.35
2019-05-07T23:46:47.190Z,1.62
2019-05-07T23:49:15.780Z,1.37
2019-05-07T23:51:44.395Z,1.72
2019-05-07T23:54:12.954Z,1.22
2019-05-07T23:56:42.681Z,1.30
2019-05-07T23:59:12.690Z,1.47
